Overton, Nevada Weather observations

Data are for observation ending at time listed.
 Day   Time    Ave.   Ave.  Ave.  Vector   Max.   Stn.    Total    Solar   Ave.  
  of    of     Air    Rel.  Wind   Wind    Wind   Baro.  Precip.   Rad.    Soil  
Year   Day     Temp.  Hum.  Speed  Dir.    Gust   Pres.                    Temp. 
2015   (PST)    F      %     mph   deg.    mph     mb.     in.     W/m2     F   
------------------------------------------------------------------------------
 180    7:10   97.4    24    0.8    54      2.3   970.6    0.00     382    103.4
 180    7:20   97.8    23    2.0    72      4.4   970.8    0.00     409    104.5
 180    7:30   97.8    24    2.0   348      3.8   970.8    0.00     436    105.4
 180    7:40   97.5    24    2.5    15      3.9   971.0    0.00     463    106.5
 180    7:50   98.8    22    1.7    83      4.0   971.0    0.00     490    107.5
 180    8:00   99.0    22    2.4    78      4.9   971.0    0.00     516    108.5
 180    8:10   99.8    21    2.4   115      5.8   971.1    0.00     542    109.4
 180    8:20  101.2    20    2.6   113      7.6   971.2    0.00     567    110.5
 180    8:30  101.7    20    3.7   108      7.6   971.2    0.00     590    111.4
 180    8:40  102.1    19    3.5   120      7.9   971.2    0.00     613    112.2
 180    8:50  102.2    19    3.7   100      8.4   971.1    0.00     636    113.1
 180    9:00  102.6    18    4.1    99     10.7   971.1    0.00     658    113.9
 180    9:10  103.0    18    4.0   135      7.9   971.2    0.00     678    114.5
 180    9:20  103.7    17    3.6   118      8.1   971.3    0.00     339    115.4
 180    9:30  103.5    17    4.5   112      9.6   971.2    0.00      71    116.3
 180    9:40  103.5    17    5.5    94      9.9   971.1    0.00      91    116.9
 180    9:50  104.9    16    3.5   124      8.5   971.0    0.00     324    117.5
 180   10:00  104.8    16    5.7    90     11.0   971.0    0.00     759    118.3
 180   10:10  105.1    16    4.3    97      9.3   971.0    0.00     773    118.7
 180   10:20  105.7    15    4.0   112      9.8   971.0    0.00     324    119.3
 180   10:30  106.0    15    5.1   148     11.3   971.0    0.00     794    119.9
 180   10:40  106.2    15    4.2   149     11.0   971.0    0.00     809    120.6
 180   10:50  106.3    15    3.2   112      6.9   971.1    0.00     819    121.3
 180   11:00  107.5    14    5.6    51      9.3   971.1    0.00     833    121.8
 180   11:10  108.1    14    4.6   120     10.5   971.1    0.00     838    121.8
 180   11:20  108.3    14    5.0    83      8.6   971.1    0.00     842    121.5
 180   11:30  108.6    14    5.0   113     10.0   971.2    0.00     848    120.6
 180   11:40  109.0    14    5.3    88     10.4   970.7    0.00     846    119.8
 180   11:50  108.0    14    5.9    66     12.9   970.4    0.00     851    119.3
 180   12:00  109.5    13    6.2   154     14.3   970.3    0.00     854    118.7
 180   12:10  109.5    13    4.4   125      9.1   970.0    0.00     832    118.7
 180   12:20  110.7    13    3.0   140      8.2   969.9    0.00     837    119.1
 180   12:30  110.6    13    4.7    83     11.0   969.7    0.00     835    119.6
 180   12:40  110.5    13    6.1   142     11.9   969.5    0.00     831    119.6
 180   12:50  110.2    12    6.2   178     13.3   969.3    0.00     825    119.3
 180   13:00  110.5    12    5.1   177     11.5   969.1    0.00     817    119.1
 180   13:10  111.0    12    6.9   182     12.4   969.1    0.00     811    119.2
 180   13:20  110.7    12    4.4   151     10.9   968.9    0.00     802    119.2
 180   13:30  111.3    12    5.0   185      8.7   968.8    0.00     789    118.8
 180   13:40  112.0    11    2.6   172      7.1   968.9    0.00     775    118.1
 180   13:50  111.8    11    5.2   177     10.7   968.6    0.00     761    117.2
 180   14:00  111.5    11    4.7   178      8.7   968.6    0.00     743    116.4
 180   14:10  111.7    12    3.3   127     10.7   968.3    0.00     724    115.7
 180   14:20  112.7    11    1.4    86      6.7   968.2    0.00     706    114.9
 180   14:30  112.0    11    5.4   153     12.5   969.2    0.00     684    114.3
 180   14:40  112.3    11    5.2   162     14.8   967.9    0.00     649    113.8
 180   14:50  112.4    11    4.9   154      9.6   967.8    0.00     637    113.3
 180   15:00  112.7    11    3.9    90      8.6   967.6    0.00     615    112.9
 180   15:10  112.5    11    5.2    58      8.8   967.5    0.00     579    112.3
 180   15:20  99999.0   99999  99999.0   99999    99999.0  99999.0   99999.00   99999    99999.0
 180   15:30  99999.0   99999  99999.0   99999    99999.0  99999.0   99999.00   99999    99999.0
 180   15:40  99999.0   99999  99999.0   99999    99999.0  99999.0   99999.00   99999    99999.0
 180   15:50  99999.0   99999  99999.0   99999    99999.0  99999.0   99999.00   99999    99999.0
 180   16:00  99999.0   99999  99999.0   99999    99999.0  99999.0   99999.00   99999    99999.0
 180   16:10  99999.0   99999  99999.0   99999    99999.0  99999.0   99999.00   99999    99999.0
 180   16:20  99999.0   99999  99999.0   99999    99999.0  99999.0   99999.00   99999    99999.0
 180   16:30  99999.0   99999  99999.0   99999    99999.0  99999.0   99999.00   99999    99999.0
 180   16:40  99999.0   99999  99999.0   99999    99999.0  99999.0   99999.00   99999    99999.0
 180   16:50  99999.0   99999  99999.0   99999    99999.0  99999.0   99999.00   99999    99999.0
 180   17:00  99999.0   99999  99999.0   99999    99999.0  99999.0   99999.00   99999    99999.0
 180   17:10  99999.0   99999  99999.0   99999    99999.0  99999.0   99999.00   99999    99999.0
 180   17:20  99999.0   99999  99999.0   99999    99999.0  99999.0   99999.00   99999    99999.0
 180   17:30  99999.0   99999  99999.0   99999    99999.0  99999.0   99999.00   99999    99999.0
 180   17:40  99999.0   99999  99999.0   99999    99999.0  99999.0   99999.00   99999    99999.0
 180   17:50  99999.0   99999  99999.0   99999    99999.0  99999.0   99999.00   99999    99999.0
 180   18:00  99999.0   99999  99999.0   99999    99999.0  99999.0   99999.00   99999    99999.0
 180   18:10  99999.0   99999  99999.0   99999    99999.0  99999.0   99999.00   99999    99999.0
 180   18:20  99999.0   99999  99999.0   99999    99999.0  99999.0   99999.00   99999    99999.0
 180   18:30  99999.0   99999  99999.0   99999    99999.0  99999.0   99999.00   99999    99999.0
 180   18:40  99999.0   99999  99999.0   99999    99999.0  99999.0   99999.00   99999    99999.0
 180   18:50  99999.0   99999  99999.0   99999    99999.0  99999.0   99999.00   99999    99999.0
 180   19:00  99999.0   99999  99999.0   99999    99999.0  99999.0   99999.00   99999    99999.0
 180   19:10  99999.0   99999  99999.0   99999    99999.0  99999.0   99999.00   99999    99999.0
 180   19:20  99999.0   99999  99999.0   99999    99999.0  99999.0   99999.00   99999    99999.0
 180   19:30  99999.0   99999  99999.0   99999    99999.0  99999.0   99999.00   99999    99999.0
 180   19:40  99999.0   99999  99999.0   99999    99999.0  99999.0   99999.00   99999    99999.0
 180   19:50  99999.0   99999  99999.0   99999    99999.0  99999.0   99999.00   99999    99999.0
 180   20:00  99999.0   99999  99999.0   99999    99999.0  99999.0   99999.00   99999    99999.0
 180   20:10  102.2    16    2.9   142      7.3   966.2    0.00       0    105.7
 180   20:20  102.1    16    2.8   126      7.6   966.3    0.00       0    105.4
 180   20:30  101.5    17    3.3   130      7.0   966.4    0.00       0    105.0
 180   20:40  101.7    16    3.2   121      7.0   966.6    0.00       0    104.7
 180   20:50  101.9    16    3.6   128      7.7   966.8    0.00       0    104.5
 180   21:00  101.7    16    3.2   140      6.9   966.8    0.00       0    104.3
 180   21:10  101.3    16    3.1   135      6.5   967.0    0.00       0    104.1
 180   21:20  100.9    17    3.2   119      7.6   967.1    0.00       0    103.8
 180   21:30   99.6    19    4.4   121     12.9   967.4    0.00       0    103.6
 180   21:40   99.7    20    5.2   131     12.5   967.4    0.00       0    103.3
 180   21:50   99.4    20    5.4   127     11.9   967.5    0.00       0    103.1
 180   22:00   99.2    20    4.4   131      9.2   967.5    0.00       0    102.9
 180   22:10   98.9    20    3.6   138      9.9   967.6    0.00       0    102.7
 180   22:20   98.7    21    3.6   131      6.9   967.6    0.00       0    102.5
 180   22:30   98.4    21    2.3   120      6.2   967.6    0.00       0    102.3
 180   22:40   96.8    23    1.4   105      4.3   967.7    0.00       0    102.0
 180   22:50   95.3    24    1.7   102      4.8   967.7    0.00       0    101.8
 180   23:00   95.3    24    0.9   119      2.9   967.7    0.00       0    101.5
 180   23:10   94.6    25    0.5     8      1.5   967.5    0.00       0    101.3
 180   23:20   93.7    26    1.1   266      2.8   967.4    0.00       0    101.0
 180   23:30   92.8    27    1.1   329      2.0   967.4    0.00       0    100.7
 180   23:40   91.3    29    0.1    49      1.2   967.5    0.00       0    100.4
 180   23:50   91.0    30    0.4    86      1.2   967.5    0.00       0    100.2
 181    0:00   91.6    28    1.7    92      3.8   967.6    0.00       0    99.9
 181    0:10   92.8    26    2.6   139      8.5   967.7    0.00       0    99.6
 181    0:20   93.9    26    3.6   157      7.3   967.7    0.00       0    99.4
 181    0:30   95.4    24    2.9   128      9.0   967.7    0.00       0    99.2
 181    0:40   95.1    24    2.4   117      5.6   967.9    0.00       0    99.0
 181    0:50   95.4    24    4.0   146     10.8   968.0    0.00       0    99.0
 181    1:00   97.5    22   10.2   174     20.0   968.1    0.00       0    98.9
 181    1:10   97.2    24   10.4   168     19.6   968.2    0.00       0    98.9
 181    1:20   96.9    24    7.0   155     14.2   968.1    0.00       0    98.8
 181    1:30   96.8    24    5.0   138     11.0   967.7    0.00       0    98.8
 181    1:40   96.3    25    3.1   130      7.5   967.6    0.00       0    98.8
 181    1:50   95.7    25    3.4   117      8.5   967.6    0.00       0    98.7
 181    2:00   94.9    26    4.2   123      9.9   967.6    0.00       0    98.6
 181    2:10   94.5    26    3.3   116      8.4   967.9    0.00       0    98.5
 181    2:20   94.5    26    3.1    95      5.8   968.1    0.00       0    98.3
 181    2:30   93.9    27    1.6    41      3.9   968.1    0.00       0    98.2
 181    2:40   93.6    27    2.6    98      6.9   967.9    0.00       0    98.0
 181    2:50   93.9    27    2.2   103      4.7   967.8    0.00       0    97.8
 181    3:00   93.8    27    2.5   114      4.7   967.6    0.00       0    97.7
 181    3:10   93.2    28    1.2   124      3.1   967.5    0.00       0    97.5
 181    3:20   92.2    29    0.6    63      2.7   967.5    0.00       0    97.3
 181    3:30   90.4    31    1.3   294      3.5   967.3    0.00       0    97.1
 181    3:40   89.0    32    1.7   296      3.9   967.2    0.00       0    96.9
 181    3:50   88.1    33    1.1   281      2.3   967.2    0.00       0    96.7
 181    4:00   86.6    36    2.1   326      2.9   967.1    0.00       0    96.5
 181    4:10   84.6    40    2.2   331      4.9   967.0    0.00       0    96.2
 181    4:20   84.4    39    2.9   319      5.4   966.9    0.00       3    95.9
 181    4:30   85.7    37    0.6   294      1.6   966.9    0.00       4    95.7
 181    4:40   86.0    37    1.0   301      2.6   967.0    0.00      12    95.5
 181    4:50   85.9    37    0.0   252      0.6   967.0    0.00      24    95.3
 181    5:00   85.1    39    2.3     5      2.8   967.0    0.00      38    95.2
 181    5:10   84.9    41    1.4   346      2.2   967.1    0.00      64    95.1
 181    5:20   86.4    38    1.0   330      1.8   967.3    0.00      96    95.3
 181    5:30   87.4    36    1.5   318      2.8   967.5    0.00     117    95.8
 181    5:40   88.5    34    2.5   327      3.4   967.7    0.00     141    96.4
 181    5:50   89.0    35    2.1   322      4.2   967.8    0.00     166    97.0
 181    6:00   91.4    31    1.6   260      3.4   968.1    0.00     163    97.8
 181    6:10   91.8    31    1.6   243      4.7   968.2    0.00     105    98.5
 181    6:20   92.5    30    0.4   253      1.6   968.4    0.00     100    98.7
 181    6:30   92.0    32    0.7   314      1.4   968.5    0.00      92    98.7
 181    6:40   91.6    33    0.8    30      1.5   968.5    0.00      93    98.6
 181    6:50   91.8    34    0.7    30      1.9   968.5    0.00     110    98.6
 181    7:00   91.5    35    1.3    16      2.4   968.6    0.00     125    98.7

Return to Overton, Nevada graphs page.


Western Regional Climate Center,wrcc@dri.edu